Terminal Aerodrome Forecast
Issued by NWS

Home | Current Version | Previous Version | Text Only | Print | Product List | Glossary On
Versions: 1 2 3 4 5 6 7 8 9 10 11 12 13
295
FTUS44 KEPZ 252336
TAFTCS
TAF
KTCS 252336Z 2600/2624 28011KT P6SM FEW060 SCT100 BKN200
     FM260500 33006KT P6SM SCT100 BKN200
     FM261500 16005KT P6SM SCT200
     FM262000 21007KT P6SM FEW060 SCT200=

USA.gov is the U.S. government's official web portal to all federal, state and local government web resources and services.